Time;durP1;ratioP1;P1;durP2;ratioP2;P2;SDS_P1;SDS_P2;PMS_P1;PMS_P2;Temp;Humidity;BMP_temperature;BMP_pressure;BME280_temperature;BME280_humidity;BME280_pressure;Samples;Min_cycle;Max_cycle;Signal;HPM_P1;HPM_P2
2023/12/31 00:00:22;;;;;;;14.90;7.43;;;4.70;99.90;;;;;;5030042;28;20220;-71
2023/12/31 00:03:09;;;;;;;8.25;6.75;;;4.70;99.90;;;;;;5023891;28;20454;-75
2023/12/31 00:05:55;;;;;;;12.10;7.13;;;4.70;99.90;;;;;;5027573;28;20209;-72
2023/12/31 00:08:40;;;;;;;11.52;6.72;;;4.70;99.90;;;;;;5034987;28;20963;-71
2023/12/31 00:11:26;;;;;;;8.80;7.33;;;4.80;99.90;;;;;;5018960;28;20207;-71
2023/12/31 00:14:12;;;;;;;9.25;6.68;;;4.70;99.90;;;;;;5031309;28;20458;-72
2023/12/31 00:16:57;;;;;;;9.48;6.13;;;4.70;99.90;;;;;;5032732;28;20197;-71
2023/12/31 00:19:44;;;;;;;8.77;5.70;;;4.70;99.90;;;;;;5045410;28;20574;-72
2023/12/31 00:22:30;;;;;;;9.60;6.18;;;4.70;99.90;;;;;;5024525;28;20234;-72
2023/12/31 00:25:17;;;;;;;6.13;5.50;;;4.60;99.90;;;;;;5030797;28;20317;-71
2023/12/31 00:28:02;;;;;;;8.65;5.60;;;4.60;99.90;;;;;;5037248;28;20568;-73
2023/12/31 00:30:48;;;;;;;12.43;5.25;;;4.50;99.90;;;;;;5027079;28;20674;-73
2023/12/31 00:33:33;;;;;;;6.85;5.45;;;4.50;99.90;;;;;;5019058;28;20235;-73
2023/12/31 00:36:21;;;;;;;7.50;5.85;;;4.50;99.90;;;;;;5028873;28;20289;-72
2023/12/31 00:39:06;;;;;;;5.63;4.60;;;4.50;99.90;;;;;;5034317;28;20205;-71
2023/12/31 00:41:52;;;;;;;6.60;4.80;;;4.50;99.90;;;;;;5041233;28;20236;-73
2023/12/31 00:44:38;;;;;;;5.47;4.25;;;4.50;99.90;;;;;;5039149;28;20463;-71
2023/12/31 00:47:23;;;;;;;8.10;5.15;;;4.40;99.90;;;;;;5047106;28;20204;-71
2023/12/31 00:50:09;;;;;;;6.25;5.57;;;4.60;99.90;;;;;;5029492;28;20314;-73
2023/12/31 00:52:56;;;;;;;5.57;4.03;;;4.50;99.90;;;;;;5041812;28;20302;-71
2023/12/31 00:55:43;;;;;;;4.97;3.60;;;4.50;99.90;;;;;;5042246;28;20204;-71
2023/12/31 00:58:29;;;;;;;6.97;4.55;;;4.40;99.90;;;;;;5028176;28;20638;-73
2023/12/31 01:01:14;;;;;;;9.05;4.10;;;4.30;99.90;;;;;;5032674;28;20230;-72
2023/12/31 01:04:00;;;;;;;5.88;3.60;;;4.40;99.90;;;;;;5029490;28;20230;-71
2023/12/31 01:06:45;;;;;;;5.13;4.20;;;4.40;99.90;;;;;;5026976;28;20331;-72
2023/12/31 01:09:32;;;;;;;5.35;3.70;;;4.40;99.90;;;;;;5017375;28;20580;-72
2023/12/31 01:12:18;;;;;;;4.72;3.75;;;4.40;99.90;;;;;;5027072;28;20198;-72
2023/12/31 01:15:04;;;;;;;8.98;3.80;;;4.20;99.90;;;;;;5033950;28;20325;-72
2023/12/31 01:17:50;;;;;;;6.22;4.72;;;4.20;99.90;;;;;;5029423;28;20225;-71
2023/12/31 01:20:36;;;;;;;6.00;4.15;;;4.10;99.90;;;;;;5019625;28;20210;-72
2023/12/31 01:23:21;;;;;;;4.88;3.60;;;4.20;99.90;;;;;;5034324;28;20259;-72
2023/12/31 01:26:08;;;;;;;7.10;4.45;;;4.10;99.90;;;;;;5031359;28;20222;-72
2023/12/31 01:28:54;;;;;;;6.18;3.55;;;4.10;99.90;;;;;;5017286;28;20317;-72
2023/12/31 01:31:40;;;;;;;8.43;3.95;;;4.00;99.90;;;;;;5036270;28;20276;-72
2023/12/31 01:34:25;;;;;;;6.57;4.22;;;4.00;99.90;;;;;;5029844;28;20254;-71
2023/12/31 01:37:11;;;;;;;7.97;4.13;;;4.00;99.90;;;;;;5030267;28;20326;-71
2023/12/31 01:39:57;;;;;;;5.85;3.30;;;4.00;99.90;;;;;;5034690;28;20201;-72
2023/12/31 01:42:45;;;;;;;7.20;3.83;;;4.10;99.90;;;;;;5044171;28;20221;-71
2023/12/31 01:45:31;;;;;;;5.97;4.03;;;4.10;99.90;;;;;;5037210;28;20298;-72
2023/12/31 01:48:17;;;;;;;5.85;4.10;;;4.20;99.90;;;;;;5027869;28;20273;-72
2023/12/31 01:51:03;;;;;;;7.35;4.30;;;4.20;99.90;;;;;;5024693;28;20250;-72
2023/12/31 01:53:49;;;;;;;5.25;3.20;;;4.10;99.90;;;;;;5023914;28;20732;-71
2023/12/31 01:56:36;;;;;;;3.60;3.00;;;4.10;99.90;;;;;;5035372;28;20205;-71
2023/12/31 01:59:24;;;;;;;4.90;3.03;;;4.10;99.90;;;;;;5037773;28;20203;-71
2023/12/31 02:02:09;;;;;;;6.53;3.55;;;4.10;99.90;;;;;;5028505;28;21135;-71
2023/12/31 02:04:55;;;;;;;3.63;2.88;;;4.00;99.90;;;;;;5034290;28;20202;-71
2023/12/31 02:07:41;;;;;;;4.97;3.13;;;4.00;99.90;;;;;;5029177;28;20275;-71
2023/12/31 02:10:27;;;;;;;4.45;2.90;;;3.90;99.90;;;;;;5040522;28;20578;-72
2023/12/31 02:13:12;;;;;;;7.38;4.55;;;3.80;99.90;;;;;;5050653;28;20357;-71
2023/12/31 02:15:59;;;;;;;4.22;2.70;;;3.80;99.90;;;;;;5030308;28;20274;-71
2023/12/31 02:18:45;;;;;;;4.18;2.70;;;3.80;99.90;;;;;;5039705;28;20272;-71
2023/12/31 02:21:31;;;;;;;3.90;2.78;;;3.80;99.90;;;;;;5026151;28;20233;-72
2023/12/31 02:24:19;;;;;;;3.58;2.75;;;3.80;99.90;;;;;;5030234;28;20308;-71
2023/12/31 02:27:06;;;;;;;4.53;2.80;;;3.80;99.90;;;;;;5023854;28;20289;-72
2023/12/31 02:29:58;;;;;;;4.00;3.10;;;3.80;99.90;;;;;;5031175;28;20221;-72
2023/12/31 02:32:43;;;;;;;5.30;2.80;;;3.90;99.90;;;;;;5039663;28;20213;-72
2023/12/31 02:35:29;;;;;;;3.72;2.67;;;4.00;99.90;;;;;;5034641;28;20223;-72
2023/12/31 02:38:15;;;;;;;4.28;2.80;;;4.00;99.90;;;;;;5030616;28;20210;-71
2023/12/31 02:41:00;;;;;;;6.30;2.85;;;4.00;99.90;;;;;;5031915;28;20208;-71
2023/12/31 02:43:48;;;;;;;8.55;2.75;;;3.90;99.90;;;;;;5032215;28;20220;-71
2023/12/31 02:46:33;;;;;;;4.80;3.17;;;3.80;99.90;;;;;;5035330;28;20695;-71
2023/12/31 02:49:19;;;;;;;6.70;3.47;;;3.80;99.90;;;;;;5043559;28;20291;-71
2023/12/31 02:52:05;;;;;;;8.38;3.40;;;3.70;99.90;;;;;;5027509;28;20198;-72
2023/12/31 02:54:50;;;;;;;3.30;3.00;;;3.70;99.90;;;;;;5022209;28;20768;-71
2023/12/31 02:57:36;;;;;;;5.85;3.35;;;3.70;99.90;;;;;;5036735;28;20724;-72
2023/12/31 03:00:23;;;;;;;4.40;3.10;;;3.80;99.90;;;;;;5033158;28;20206;-72
2023/12/31 03:03:09;;;;;;;4.00;3.42;;;3.90;99.90;;;;;;5029964;28;20600;-75
2023/12/31 03:05:55;;;;;;;6.63;3.20;;;3.90;99.90;;;;;;5028071;28;20215;-71
2023/12/31 03:08:41;;;;;;;4.70;3.00;;;4.00;99.90;;;;;;5034682;28;20209;-72
2023/12/31 03:11:26;;;;;;;5.22;3.20;;;4.10;99.90;;;;;;5041685;28;20201;-72
2023/12/31 03:14:13;;;;;;;5.03;3.55;;;4.10;99.90;;;;;;5032795;28;20296;-72
2023/12/31 03:17:00;;;;;;;5.28;3.10;;;4.20;99.90;;;;;;5027792;28;20206;-72
2023/12/31 03:19:45;;;;;;;4.82;3.22;;;4.30;99.90;;;;;;5031826;28;20248;-71
2023/12/31 03:22:31;;;;;;;6.13;4.03;;;4.30;99.90;;;;;;5037576;28;20594;-71
2023/12/31 03:25:17;;;;;;;9.60;3.25;;;4.30;99.90;;;;;;5031093;28;20198;-71
2023/12/31 03:28:02;;;;;;;7.55;3.85;;;4.30;99.90;;;;;;5022485;28;20208;-71
2023/12/31 03:30:48;;;;;;;5.57;3.67;;;4.30;99.90;;;;;;5037902;28;20203;-71
2023/12/31 03:33:35;;;;;;;5.68;3.30;;;4.30;99.90;;;;;;5025728;28;20733;-71
2023/12/31 03:36:21;;;;;;;5.00;3.47;;;4.40;99.90;;;;;;5027380;28;20206;-71
2023/12/31 03:39:06;;;;;;;5.53;3.83;;;4.40;99.90;;;;;;5029748;28;20220;-71
2023/12/31 03:41:52;;;;;;;5.20;3.70;;;4.40;99.90;;;;;;5034831;28;20231;-71
2023/12/31 03:44:38;;;;;;;7.38;4.10;;;4.50;99.90;;;;;;5033519;28;20226;-73
2023/12/31 03:47:24;;;;;;;6.30;4.28;;;4.50;99.90;;;;;;5024878;28;20229;-72
2023/12/31 03:50:11;;;;;;;4.75;3.70;;;4.50;99.90;;;;;;5025059;28;20209;-71
2023/12/31 03:52:57;;;;;;;5.15;3.70;;;4.60;99.90;;;;;;5034833;28;20332;-71
2023/12/31 03:55:43;;;;;;;5.10;3.20;;;4.60;99.90;;;;;;5036057;28;20285;-71
2023/12/31 03:58:28;;;;;;;4.10;3.30;;;4.50;99.90;;;;;;5041245;28;20254;-72
2023/12/31 04:01:14;;;;;;;4.93;3.47;;;4.60;99.90;;;;;;5026532;28;20313;-71
2023/12/31 04:04:00;;;;;;;4.20;3.53;;;4.50;99.90;;;;;;5035432;28;20231;-72
2023/12/31 04:06:47;;;;;;;4.45;3.30;;;4.60;99.90;;;;;;5038165;28;20205;-72
2023/12/31 04:09:32;;;;;;;8.98;3.80;;;4.60;99.90;;;;;;5036456;28;20766;-72
2023/12/31 04:12:18;;;;;;;4.20;3.40;;;4.60;99.90;;;;;;5037915;28;20197;-72
2023/12/31 04:15:07;;;;;;;7.13;3.95;;;4.60;99.90;;;;;;5023929;28;20234;-73
2023/12/31 04:17:53;;;;;;;4.35;3.15;;;4.70;99.90;;;;;;5034117;28;20705;-71
2023/12/31 04:20:39;;;;;;;4.30;3.35;;;4.80;99.90;;;;;;5040683;28;20212;-71
2023/12/31 04:23:26;;;;;;;3.90;3.00;;;4.80;99.90;;;;;;5056755;22;20253;-74
2023/12/31 04:26:11;;;;;;;5.68;3.28;;;4.90;99.90;;;;;;5019049;28;20815;-74
2023/12/31 04:28:57;;;;;;;4.70;3.60;;;5.00;99.90;;;;;;5024815;28;20265;-74
2023/12/31 04:31:44;;;;;;;5.05;3.45;;;5.10;99.90;;;;;;5026985;28;20567;-74
2023/12/31 04:34:29;;;;;;;5.07;3.40;;;5.10;99.90;;;;;;5017031;28;20227;-74
2023/12/31 04:37:15;;;;;;;4.75;3.70;;;5.20;99.90;;;;;;5015279;28;20578;-74
2023/12/31 04:40:03;;;;;;;5.32;3.78;;;5.30;99.90;;;;;;5023927;28;20284;-74
2023/12/31 04:42:48;;;;;;;4.95;3.40;;;5.30;99.90;;;;;;5019101;28;20233;-74
2023/12/31 04:45:34;;;;;;;5.50;3.75;;;5.40;99.90;;;;;;5020793;28;20209;-74
2023/12/31 04:48:20;;;;;;;5.97;3.92;;;5.40;99.90;;;;;;5015879;28;20204;-75
2023/12/31 04:51:06;;;;;;;8.05;6.75;;;5.40;99.90;;;;;;5018604;28;20343;-75
2023/12/31 04:53:52;;;;;;;4.82;3.45;;;5.40;99.90;;;;;;5016748;28;20227;-74
2023/12/31 04:56:39;;;;;;;6.60;3.03;;;5.50;99.90;;;;;;5021607;28;20201;-74
2023/12/31 04:59:24;;;;;;;5.43;3.78;;;5.50;99.90;;;;;;5013286;28;20446;-74
2023/12/31 05:02:10;;;;;;;4.53;3.47;;;5.50;99.90;;;;;;5013755;28;20734;-75
2023/12/31 05:04:56;;;;;;;5.40;3.55;;;5.50;99.90;;;;;;5021208;28;20902;-74
2023/12/31 05:07:42;;;;;;;6.13;3.90;;;5.50;99.90;;;;;;5029782;28;20202;-74
2023/12/31 05:10:27;;;;;;;3.42;3.05;;;5.50;99.90;;;;;;5017648;28;20575;-74
2023/12/31 05:13:14;;;;;;;4.30;3.58;;;5.60;99.90;;;;;;5018640;28;20390;-74
2023/12/31 05:15:59;;;;;;;5.57;3.53;;;5.60;99.90;;;;;;5018331;28;20214;-74
2023/12/31 05:18:50;;;;;;;4.47;3.30;;;5.50;99.90;;;;;;5026638;28;20801;-74
2023/12/31 05:21:38;;;;;;;4.97;3.58;;;5.50;99.90;;;;;;5012384;28;20688;-74
2023/12/31 05:24:24;;;;;;;4.40;3.50;;;5.60;99.90;;;;;;5006834;28;20343;-74
2023/12/31 05:27:09;;;;;;;8.63;4.53;;;5.60;99.90;;;;;;5010903;28;20221;-73
2023/12/31 05:29:57;;;;;;;6.17;3.93;;;5.60;99.90;;;;;;5013322;28;20207;-74
2023/12/31 05:32:42;;;;;;;4.90;3.87;;;5.70;99.90;;;;;;5008262;28;20804;-75
2023/12/31 05:35:29;;;;;;;4.85;3.60;;;5.70;99.90;;;;;;5018880;28;20448;-74
2023/12/31 05:38:15;;;;;;;5.20;3.50;;;5.70;99.90;;;;;;5007441;28;20212;-75
2023/12/31 05:41:00;;;;;;;7.47;3.42;;;5.70;99.90;;;;;;5011966;28;20679;-74
2023/12/31 05:43:46;;;;;;;6.32;3.90;;;5.70;99.90;;;;;;5008853;28;20230;-74
2023/12/31 05:46:33;;;;;;;4.90;4.37;;;5.60;99.90;;;;;;5016352;28;20206;-75
2023/12/31 05:49:19;;;;;;;5.20;3.72;;;5.70;99.90;;;;;;5004042;28;20455;-73
2023/12/31 05:52:06;;;;;;;4.70;3.90;;;5.70;99.90;;;;;;5016909;28;20226;-74
2023/12/31 05:54:51;;;;;;;6.88;3.17;;;5.70;99.90;;;;;;5009169;28;20471;-74
2023/12/31 05:57:38;;;;;;;5.07;3.80;;;5.70;99.90;;;;;;5014208;28;20267;-74
2023/12/31 06:00:24;;;;;;;5.70;4.13;;;5.70;99.90;;;;;;5010441;28;21262;-75
2023/12/31 06:03:11;;;;;;;4.70;3.47;;;5.80;99.90;;;;;;5015690;28;20483;-75
2023/12/31 06:05:57;;;;;;;5.33;3.90;;;5.80;99.90;;;;;;5011257;28;20464;-75
2023/12/31 06:08:43;;;;;;;4.13;3.40;;;5.80;99.90;;;;;;5013140;28;20445;-74
2023/12/31 06:11:29;;;;;;;7.70;4.15;;;5.80;99.90;;;;;;5010196;28;20490;-74
2023/12/31 06:14:14;;;;;;;7.72;3.70;;;5.70;99.90;;;;;;5009567;28;20355;-75
2023/12/31 06:17:00;;;;;;;4.80;3.60;;;5.70;99.90;;;;;;5009599;28;20220;-74
2023/12/31 06:19:47;;;;;;;4.90;3.70;;;5.70;99.90;;;;;;5008705;28;20898;-75
2023/12/31 06:22:33;;;;;;;10.03;3.50;;;5.70;99.90;;;;;;5009233;28;20842;-74
2023/12/31 06:25:19;;;;;;;5.45;3.50;;;5.80;99.90;;;;;;5006602;28;20481;-74
2023/12/31 06:28:05;;;;;;;4.83;3.13;;;5.80;99.90;;;;;;5015663;28;20206;-73
2023/12/31 06:30:51;;;;;;;7.33;3.90;;;5.80;99.90;;;;;;5008039;28;20438;-74
2023/12/31 06:33:37;;;;;;;4.72;3.45;;;5.80;99.90;;;;;;5013658;28;20545;-74
2023/12/31 06:36:24;;;;;;;4.35;3.10;;;5.80;99.90;;;;;;5005804;28;20542;-75
2023/12/31 06:39:09;;;;;;;4.40;3.25;;;5.80;99.90;;;;;;5009121;28;20583;-74
2023/12/31 06:41:55;;;;;;;7.18;3.30;;;5.80;99.90;;;;;;5013769;28;20211;-73
2023/12/31 06:44:41;;;;;;;4.75;3.30;;;5.80;99.90;;;;;;5010311;28;20709;-74
2023/12/31 06:47:27;;;;;;;5.90;3.20;;;5.80;99.90;;;;;;5006330;28;20763;-74
2023/12/31 06:50:13;;;;;;;6.70;3.13;;;5.80;99.90;;;;;;5007340;28;20450;-75
2023/12/31 06:52:59;;;;;;;4.93;3.03;;;5.80;99.90;;;;;;5011571;28;20997;-74
2023/12/31 06:55:45;;;;;;;3.85;2.97;;;5.90;99.90;;;;;;5006422;28;20450;-74
2023/12/31 06:58:30;;;;;;;7.30;3.27;;;5.90;99.90;;;;;;5006522;28;20582;-74
2023/12/31 07:01:16;;;;;;;3.10;2.37;;;6.00;99.90;;;;;;5010841;28;20863;-75
2023/12/31 07:04:02;;;;;;;4.10;3.47;;;6.20;99.90;;;;;;5011032;28;20919;-74
2023/12/31 07:06:49;;;;;;;4.70;2.90;;;6.20;99.90;;;;;;5010944;28;20557;-74
2023/12/31 07:09:36;;;;;;;3.57;2.80;;;6.40;99.90;;;;;;5007658;28;20573;-73
2023/12/31 07:12:21;;;;;;;4.00;2.80;;;6.40;99.90;;;;;;5007832;28;20465;-74
2023/12/31 07:15:09;;;;;;;4.10;2.57;;;6.50;99.90;;;;;;5004913;28;20566;-74
2023/12/31 07:17:54;;;;;;;5.45;3.53;;;6.50;99.90;;;;;;5008559;28;20833;-74
2023/12/31 07:20:40;;;;;;;3.43;2.77;;;6.50;99.90;;;;;;5015167;28;20205;-74
2023/12/31 07:23:26;;;;;;;4.37;2.63;;;6.50;99.90;;;;;;5012146;28;20459;-74
2023/12/31 07:26:23;;;;;;;3.43;2.70;;;6.50;99.90;;;;;;5012999;28;20520;-75
2023/12/31 07:29:08;;;;;;;6.80;3.20;;;6.50;99.90;;;;;;5019499;28;20451;-75
2023/12/31 07:31:54;;;;;;;3.77;2.70;;;6.50;99.90;;;;;;5014575;28;20446;-75
2023/12/31 07:34:39;;;;;;;3.20;2.53;;;6.50;99.90;;;;;;5011676;28;20453;-74
2023/12/31 07:37:25;;;;;;;3.03;2.30;;;6.50;99.90;;;;;;5010562;28;20470;-74
2023/12/31 07:40:11;;;;;;;2.90;2.10;;;6.50;99.90;;;;;;5011915;28;20914;-74
2023/12/31 07:42:58;;;;;;;3.43;2.67;;;6.50;99.90;;;;;;5009843;28;20553;-73
2023/12/31 07:45:44;;;;;;;4.07;2.10;;;6.50;99.90;;;;;;5014103;28;20454;-74
2023/12/31 07:48:29;;;;;;;6.77;4.60;;;6.50;99.90;;;;;;5012825;28;20442;-75
2023/12/31 07:51:15;;;;;;;9.03;6.20;;;6.50;99.90;;;;;;5009444;28;20573;-75
2023/12/31 07:54:01;;;;;;;5.35;4.85;;;6.50;99.90;;;;;;5017543;28;20461;-74
2023/12/31 07:56:47;;;;;;;5.20;4.07;;;6.50;99.90;;;;;;5018034;28;20200;-75
2023/12/31 07:59:35;;;;;;;7.20;4.30;;;6.70;99.90;;;;;;5016134;28;20291;-74
2023/12/31 08:02:21;;;;;;;9.13;5.80;;;6.70;99.90;;;;;;5015322;28;20223;-74
2023/12/31 08:05:07;;;;;;;5.63;3.23;;;6.70;99.90;;;;;;5011382;28;20231;-74
2023/12/31 08:07:52;;;;;;;5.35;3.35;;;6.80;99.90;;;;;;5006647;28;21044;-75
2023/12/31 08:10:40;;;;;;;5.40;4.50;;;6.90;99.90;;;;;;5011324;28;20240;-75
2023/12/31 08:13:26;;;;;;;4.60;3.90;;;6.90;99.90;;;;;;5016255;28;20437;-74
2023/12/31 08:16:13;;;;;;;3.67;2.80;;;6.90;99.90;;;;;;5011744;28;20531;-74
2023/12/31 08:18:59;;;;;;;3.97;2.80;;;7.00;99.90;;;;;;5014189;28;20207;-75
2023/12/31 08:21:45;;;;;;;4.13;3.47;;;7.00;99.90;;;;;;5012479;28;20438;-75
2023/12/31 08:24:31;;;;;;;6.77;3.80;;;7.10;99.90;;;;;;5011207;28;20491;-74
2023/12/31 08:27:16;;;;;;;3.33;2.97;;;7.10;99.90;;;;;;5018401;28;20447;-74
2023/12/31 08:30:02;;;;;;;3.60;2.33;;;7.20;99.90;;;;;;5009105;28;20446;-74
2023/12/31 08:32:49;;;;;;;3.43;2.33;;;7.20;99.90;;;;;;5012724;28;20436;-74
2023/12/31 08:35:35;;;;;;;6.60;2.60;;;7.20;99.90;;;;;;5016689;28;20455;-74
2023/12/31 08:38:20;;;;;;;3.93;2.13;;;7.20;99.90;;;;;;5010007;28;20926;-74
2023/12/31 08:41:06;;;;;;;6.07;2.60;;;7.30;99.90;;;;;;5009365;28;20454;-75
2023/12/31 08:43:52;;;;;;;3.90;2.30;;;7.40;99.90;;;;;;5010665;28;20801;-75
2023/12/31 08:46:38;;;;;;;3.13;2.27;;;7.50;99.90;;;;;;5006659;28;20589;-75
2023/12/31 08:49:27;;;;;;;6.70;2.70;;;7.50;99.90;;;;;;5013552;28;20443;-74
2023/12/31 08:52:12;;;;;;;3.40;2.40;;;7.60;99.90;;;;;;5014594;28;20915;-75
2023/12/31 08:54:58;;;;;;;3.00;2.20;;;7.60;99.90;;;;;;5009944;28;20444;-75
2023/12/31 08:57:46;;;;;;;2.90;2.20;;;7.70;99.90;;;;;;5005258;28;20455;-75
2023/12/31 09:00:32;;;;;;;3.40;2.20;;;7.70;99.90;;;;;;5009252;28;20463;-75
2023/12/31 09:03:17;;;;;;;3.30;2.50;;;7.80;99.90;;;;;;5002945;28;20621;-74
2023/12/31 09:06:05;;;;;;;3.70;2.50;;;7.80;99.90;;;;;;5005200;28;20506;-74
2023/12/31 09:08:51;;;;;;;4.60;2.80;;;7.80;99.90;;;;;;5003176;28;20584;-74
2023/12/31 09:11:36;;;;;;;3.43;2.87;;;7.90;99.90;;;;;;5002873;28;20417;-75
2023/12/31 09:14:22;;;;;;;5.93;2.53;;;7.80;99.90;;;;;;5009160;28;20468;-74
2023/12/31 09:17:08;;;;;;;5.30;2.93;;;7.80;99.90;;;;;;5002528;28;20460;-74
2023/12/31 09:19:55;;;;;;;4.80;3.30;;;7.80;99.90;;;;;;5005463;28;20498;-74
2023/12/31 09:22:43;;;;;;;4.10;2.60;;;7.90;99.90;;;;;;5008296;28;20504;-74
2023/12/31 09:25:28;;;;;;;3.10;2.03;;;7.90;99.90;;;;;;5002494;28;20430;-75
2023/12/31 09:28:14;;;;;;;3.20;2.33;;;8.00;99.90;;;;;;5015299;28;20453;-74
2023/12/31 09:31:00;;;;;;;4.60;1.93;;;8.00;99.90;;;;;;5004385;28;20417;-74
2023/12/31 09:33:45;;;;;;;3.73;2.33;;;8.00;99.90;;;;;;5007188;28;20537;-74
2023/12/31 09:36:32;;;;;;;3.20;2.37;;;8.00;99.90;;;;;;5015598;28;21445;-74
2023/12/31 09:39:19;;;;;;;3.03;2.30;;;8.10;99.90;;;;;;5007669;28;20453;-75
2023/12/31 09:42:13;;;;;;;4.70;2.27;;;8.10;99.90;;;;;;5005923;28;20741;-75
2023/12/31 09:44:59;;;;;;;2.60;1.90;;;8.20;99.90;;;;;;5005548;28;20457;-75
2023/12/31 09:47:47;;;;;;;2.70;2.07;;;8.30;99.90;;;;;;5010412;28;20503;-74
2023/12/31 09:50:34;;;;;;;4.60;2.00;;;8.30;99.90;;;;;;5002322;28;20444;-74
2023/12/31 09:53:22;;;;;;;2.40;1.90;;;8.30;99.90;;;;;;5001854;28;20580;-75
2023/12/31 09:56:10;;;;;;;3.40;2.40;;;8.40;99.90;;;;;;5009394;28;20459;-74
2023/12/31 09:58:57;;;;;;;5.97;2.83;;;8.40;99.90;;;;;;5004992;28;20791;-74
2023/12/31 10:01:43;;;;;;;4.07;2.83;;;8.50;99.90;;;;;;5011691;28;20523;-74
2023/12/31 10:04:29;;;;;;;4.53;3.00;;;8.50;99.90;;;;;;5001936;28;20630;-74
2023/12/31 10:07:15;;;;;;;5.00;3.10;;;8.50;99.90;;;;;;5010817;28;20565;-74
2023/12/31 10:10:03;;;;;;;4.33;2.90;;;8.60;99.90;;;;;;5012126;28;20534;-74
2023/12/31 10:12:50;;;;;;;6.40;3.53;;;8.70;99.90;;;;;;5000468;28;20447;-74
2023/12/31 10:15:35;;;;;;;4.10;3.20;;;8.80;99.90;;;;;;5013550;28;20448;-75
2023/12/31 10:18:21;;;;;;;5.70;2.87;;;8.90;99.90;;;;;;5024236;28;20942;-74
2023/12/31 10:21:08;;;;;;;4.60;3.00;;;8.90;99.90;;;;;;5006948;28;20455;-73
2023/12/31 10:23:54;;;;;;;3.97;2.80;;;9.00;99.90;;;;;;5030570;22;20451;-73
2023/12/31 10:26:40;;;;;;;4.20;2.10;;;9.10;99.90;;;;;;5035734;28;20943;-73
2023/12/31 10:29:28;;;;;;;6.07;2.20;;;9.10;99.90;;;;;;5028002;28;20460;-71
2023/12/31 10:32:14;;;;;;;5.03;2.40;;;9.20;99.90;;;;;;5027418;28;20898;-72
2023/12/31 10:35:09;;;;;;;6.23;2.20;;;9.30;99.90;;;;;;5019881;28;20464;-72
2023/12/31 10:38:03;;;;;;;3.40;2.30;;;9.40;99.90;;;;;;5028234;28;20451;-71
2023/12/31 10:40:49;;;;;;;4.50;2.50;;;9.50;99.90;;;;;;5034990;28;20447;-72
2023/12/31 10:43:35;;;;;;;3.87;2.13;;;9.60;99.90;;;;;;5031898;28;20482;-73
2023/12/31 10:46:24;;;;;;;3.90;2.37;;;9.60;99.90;;;;;;5038304;28;20431;-73
2023/12/31 10:49:12;;;;;;;3.83;1.90;;;9.60;99.90;;;;;;5027774;28;20459;-71
2023/12/31 10:52:01;;;;;;;6.43;2.57;;;9.70;99.90;;;;;;5025205;28;20928;-72
2023/12/31 10:54:48;;;;;;;5.47;2.87;;;10.00;99.90;;;;;;5037485;28;20468;-72
2023/12/31 10:57:34;;;;;;;4.00;2.47;;;10.10;99.90;;;;;;5036893;28;20578;-72
2023/12/31 11:00:20;;;;;;;4.47;2.90;;;10.20;99.90;;;;;;5046123;28;20430;-71
2023/12/31 11:03:13;;;;;;;4.77;2.33;;;10.10;99.90;;;;;;5045079;28;20412;-72
2023/12/31 11:06:00;;;;;;;39.43;22.00;;;10.00;99.90;;;;;;5037753;28;20427;-72
2023/12/31 11:08:46;;;;;;;7.40;2.93;;;10.00;99.90;;;;;;5048749;28;20417;-72
2023/12/31 11:11:31;;;;;;;7.57;5.13;;;9.90;99.90;;;;;;5040580;28;20586;-72
2023/12/31 11:14:19;;;;;;;5.40;3.77;;;9.90;99.90;;;;;;5046960;28;20444;-72
2023/12/31 11:17:26;;;;;;;3.20;2.53;;;9.90;99.90;;;;;;5037625;28;20424;-72
2023/12/31 11:20:31;;;;;;;5.30;3.10;;;9.80;99.90;;;;;;5029474;28;20818;-72
2023/12/31 11:23:25;;;;;;;5.50;2.93;;;9.70;99.90;;;;;;5031783;28;20447;-72
2023/12/31 11:26:12;;;;;;;3.83;2.70;;;9.60;99.90;;;;;;5034033;28;20430;-71
2023/12/31 11:28:58;;;;;;;3.63;2.70;;;9.50;99.90;;;;;;5030218;28;20445;-72
2023/12/31 11:31:44;;;;;;;10.10;4.13;;;9.40;99.90;;;;;;5030477;28;20446;-72
2023/12/31 11:34:36;;;;;;;8.00;4.50;;;9.30;99.90;;;;;;5030746;28;20467;-72
2023/12/31 11:37:23;;;;;;;10.50;3.50;;;9.40;99.90;;;;;;5023054;28;20460;-73
2023/12/31 11:40:11;;;;;;;4.00;3.20;;;9.30;99.90;;;;;;5032152;28;20451;-70
2023/12/31 11:42:57;;;;;;;4.27;2.80;;;9.30;99.90;;;;;;5027866;28;20481;-72
2023/12/31 11:45:43;;;;;;;6.10;3.00;;;9.20;99.90;;;;;;5029417;28;20453;-72
2023/12/31 11:48:30;;;;;;;3.90;2.60;;;9.20;99.90;;;;;;5029522;28;20474;-71
2023/12/31 11:51:16;;;;;;;3.97;2.90;;;9.20;99.90;;;;;;5028238;28;20820;-72
2023/12/31 11:54:04;;;;;;;3.33;2.50;;;9.20;99.90;;;;;;5024817;28;20803;-72
2023/12/31 11:56:52;;;;;;;5.37;2.70;;;9.30;99.90;;;;;;5028540;28;20963;-72
2023/12/31 11:59:39;;;;;;;6.30;2.57;;;9.20;99.90;;;;;;5026454;28;20593;-72
2023/12/31 12:02:26;;;;;;;5.30;2.67;;;9.10;99.90;;;;;;5023989;28;20447;-72
2023/12/31 12:05:11;;;;;;;4.20;2.90;;;9.10;99.90;;;;;;5026356;28;20517;-72
2023/12/31 12:07:59;;;;;;;4.07;2.40;;;9.10;99.90;;;;;;5030707;28;20497;-71
2023/12/31 12:10:45;;;;;;;2.97;2.40;;;9.20;99.90;;;;;;5027830;28;20454;-71
2023/12/31 12:13:31;;;;;;;4.40;2.57;;;9.20;99.90;;;;;;5027172;28;20447;-72
2023/12/31 12:16:17;;;;;;;4.87;2.67;;;9.20;99.90;;;;;;5032172;28;20470;-72
2023/12/31 12:19:05;;;;;;;2.40;2.10;;;9.20;99.90;;;;;;5030177;28;20582;-72
2023/12/31 12:21:51;;;;;;;4.30;1.90;;;9.30;99.90;;;;;;5025799;28;20442;-72
2023/12/31 12:24:36;;;;;;;2.80;2.40;;;9.30;99.90;;;;;;5026977;28;20585;-72
2023/12/31 12:27:23;;;;;;;2.70;1.90;;;9.30;99.90;;;;;;5028575;28;20590;-72
2023/12/31 12:30:10;;;;;;;3.60;2.30;;;9.30;99.90;;;;;;5027796;28;20451;-72
2023/12/31 12:32:58;;;;;;;4.37;2.27;;;9.30;99.90;;;;;;5029021;28;20496;-71
2023/12/31 12:35:45;;;;;;;2.87;1.80;;;9.30;99.90;;;;;;5040178;28;20474;-73
2023/12/31 12:38:31;;;;;;;3.80;2.10;;;9.40;99.90;;;;;;5041973;28;20491;-72
2023/12/31 12:41:23;;;;;;;3.90;1.70;;;9.30;99.90;;;;;;5029725;28;20463;-71
2023/12/31 12:44:10;;;;;;;4.00;2.00;;;9.30;99.90;;;;;;5014328;28;20546;-72
2023/12/31 12:46:56;;;;;;;2.20;1.60;;;9.30;99.90;;;;;;5031592;28;20478;-72
2023/12/31 12:49:41;;;;;;;3.10;1.80;;;9.30;99.90;;;;;;5026679;28;20457;-72
2023/12/31 12:52:29;;;;;;;4.80;1.80;;;9.30;99.90;;;;;;5034262;28;20432;-72
2023/12/31 12:55:14;;;;;;;2.20;1.70;;;9.30;99.90;;;;;;5038547;28;20447;-73
2023/12/31 12:58:00;;;;;;;6.07;2.03;;;9.40;99.90;;;;;;5027900;28;20427;-70
2023/12/31 13:00:47;;;;;;;3.40;2.30;;;9.40;99.90;;;;;;5036519;28;20432;-72
2023/12/31 13:03:33;;;;;;;2.90;1.67;;;9.50;99.90;;;;;;5032483;28;20442;-73
2023/12/31 13:06:19;;;;;;;3.00;1.87;;;9.40;99.90;;;;;;5029854;28;20491;-72
2023/12/31 13:09:06;;;;;;;2.70;1.60;;;9.50;99.90;;;;;;5015212;28;20431;-72
2023/12/31 13:11:52;;;;;;;2.83;1.77;;;9.40;99.90;;;;;;5018141;28;20915;-72
2023/12/31 13:14:38;;;;;;;3.67;1.60;;;9.50;99.90;;;;;;5040729;28;20559;-72
2023/12/31 13:17:25;;;;;;;3.83;1.60;;;9.50;99.90;;;;;;5025928;28;20634;-72
2023/12/31 13:20:10;;;;;;;2.43;1.67;;;9.50;99.90;;;;;;5031408;28;20443;-72
2023/12/31 13:22:56;;;;;;;3.40;1.67;;;9.50;99.90;;;;;;5026907;28;20952;-72
2023/12/31 13:25:42;;;;;;;3.67;1.83;;;9.60;99.90;;;;;;5020661;28;21026;-72
2023/12/31 13:28:27;;;;;;;3.10;1.27;;;9.50;99.90;;;;;;5034453;28;21007;-72
2023/12/31 13:31:13;;;;;;;5.23;1.30;;;9.50;99.90;;;;;;5022942;28;20415;-71
2023/12/31 13:34:00;;;;;;;4.70;1.97;;;9.40;99.90;;;;;;5015211;28;20452;-72
2023/12/31 13:36:49;;;;;;;3.47;1.47;;;9.40;99.90;;;;;;5040716;28;20475;-72
2023/12/31 13:39:34;;;;;;;3.03;1.60;;;9.40;99.90;;;;;;5035798;28;20503;-72
2023/12/31 13:42:20;;;;;;;6.23;1.40;;;9.40;99.90;;;;;;5037033;28;20787;-72
2023/12/31 13:45:07;;;;;;;2.80;1.73;;;9.40;99.90;;;;;;5020835;28;20485;-71
2023/12/31 13:47:55;;;;;;;3.00;1.70;;;9.40;99.90;;;;;;5025419;28;20454;-71
2023/12/31 13:50:42;;;;;;;3.77;1.37;;;9.30;99.90;;;;;;5038623;28;20451;-71
2023/12/31 13:53:28;;;;;;;4.17;1.90;;;9.30;99.90;;;;;;5030325;28;20434;-71
2023/12/31 13:56:13;;;;;;;5.50;1.23;;;9.30;99.90;;;;;;5026305;28;20423;-70
2023/12/31 13:58:59;;;;;;;2.00;1.10;;;9.30;99.90;;;;;;5022572;28;20446;-71
2023/12/31 14:01:44;;;;;;;5.43;1.30;;;9.30;99.90;;;;;;5034103;28;20410;-72
2023/12/31 14:04:30;;;;;;;2.13;1.10;;;9.20;99.90;;;;;;5033589;28;20481;-71
2023/12/31 14:07:17;;;;;;;2.20;1.20;;;9.20;99.90;;;;;;5030667;28;20451;-72
2023/12/31 14:10:03;;;;;;;2.90;1.20;;;9.20;99.90;;;;;;5028013;28;20427;-72
2023/12/31 14:12:49;;;;;;;3.50;1.30;;;9.20;99.90;;;;;;5033445;28;20430;-72
2023/12/31 14:15:34;;;;;;;3.03;1.33;;;9.20;99.90;;;;;;5029791;28;20466;-72
2023/12/31 14:18:20;;;;;;;4.53;1.37;;;9.20;99.90;;;;;;5033828;28;20410;-70
2023/12/31 14:21:06;;;;;;;2.20;1.30;;;9.20;99.90;;;;;;5031108;28;20423;-72
2023/12/31 14:23:53;;;;;;;2.73;1.30;;;9.20;99.90;;;;;;5034851;28;20561;-73
2023/12/31 14:26:40;;;;;;;2.37;1.50;;;9.20;99.90;;;;;;5030159;28;20467;-72
2023/12/31 14:29:25;;;;;;;2.47;1.30;;;9.20;99.90;;;;;;5034147;28;20491;-72
2023/12/31 14:32:11;;;;;;;6.00;1.80;;;9.10;99.90;;;;;;5029091;28;20431;-72
2023/12/31 14:34:57;;;;;;;5.73;1.67;;;9.10;99.90;;;;;;5027146;28;20447;-73
2023/12/31 14:37:42;;;;;;;4.00;1.60;;;9.10;99.90;;;;;;5036071;28;20447;-72